Time,TemperatureF,DewpointF,PressureIn,WindDirection,WindDirectionDegrees,WindSpeedMPH,WindSpeedGustMPH,Humidity,HourlyPrecipIn,Conditions,Clouds,dailyrainin,SoftwareType,DateUTC
2013-11-16 00:02:00,41.2,34.2,29.35,SSE,158,14.0,18.0,76,0.00,,---,0.00,VWS V14.01,2013-11-16 06:02:00,
2013-11-16 00:07:00,41.2,34.2,29.35,South,181,14.0,20.0,76,0.00,,---,0.00,VWS V14.01,2013-11-16 06:07:00,
2013-11-16 00:12:00,41.2,34.2,29.35,South,179,14.0,21.0,76,0.00,,---,0.00,VWS V14.01,2013-11-16 06:12:00,
2013-11-16 00:17:00,41.0,34.3,29.34,SSW,192,13.0,21.0,77,0.00,,---,0.00,VWS V14.01,2013-11-16 06:17:00,
2013-11-16 00:22:00,40.7,34.1,29.34,South,179,12.0,21.0,77,0.00,,---,0.00,VWS V14.01,2013-11-16 06:22:00,
2013-11-16 00:27:00,40.6,34.0,29.34,South,172,11.0,21.0,77,0.00,,---,0.00,VWS V14.01,2013-11-16 06:27:00,
2013-11-16 00:32:00,40.4,33.8,29.35,South,173,11.0,12.0,77,0.00,,---,0.00,VWS V14.01,2013-11-16 06:32:00,
2013-11-16 00:37:00,40.2,33.9,29.35,SSE,167,5.0,14.0,78,0.00,,---,0.00,VWS V14.01,2013-11-16 06:37:00,
2013-11-16 00:42:00,40.0,34.0,29.35,South,176,5.0,14.0,79,0.00,,---,0.00,VWS V14.01,2013-11-16 06:42:00,
2013-11-16 00:47:00,39.9,33.9,29.35,SSE,166,6.0,14.0,79,0.00,,---,0.00,VWS V14.01,2013-11-16 06:47:00,
2013-11-16 00:52:00,39.7,33.7,29.35,South,183,4.0,14.0,79,0.00,,---,0.00,VWS V14.01,2013-11-16 06:52:00,
2013-11-16 00:57:00,39.6,34.0,29.35,South,179,6.0,14.0,80,0.00,,---,0.00,VWS V14.01,2013-11-16 06:57:00,
2013-11-16 01:02:00,39.4,33.8,29.34,SSE,167,8.0,9.0,80,0.00,,---,0.00,VWS V14.01,2013-11-16 07:02:00,
2013-11-16 01:07:00,39.2,33.6,29.34,South,182,2.0,10.0,80,0.00,,---,0.00,VWS V14.01,2013-11-16 07:07:00,
2013-11-16 01:12:00,39.0,33.7,29.34,South,177,4.0,10.0,81,0.00,,---,0.00,VWS V14.01,2013-11-16 07:12:00,
2013-11-16 01:17:00,38.7,33.4,29.34,SSE,162,6.0,10.0,81,0.00,,---,0.00,VWS V14.01,2013-11-16 07:17:00,
2013-11-16 01:22:00,38.7,33.7,29.34,South,176,10.0,12.0,82,0.00,,---,0.00,VWS V14.01,2013-11-16 07:22:00,
2013-11-16 01:27:00,38.7,33.7,29.34,SSE,165,7.0,13.0,82,0.00,,---,0.00,VWS V14.01,2013-11-16 07:27:00,
2013-11-16 01:32:00,38.7,33.7,29.34,South,172,10.0,10.0,82,0.00,,---,0.00,VWS V14.01,2013-11-16 07:32:00,
2013-11-16 01:37:00,38.6,33.6,29.34,South,178,1.0,15.0,82,0.00,,---,0.00,VWS V14.01,2013-11-16 07:37:00,
2013-11-16 01:42:00,38.4,33.4,29.34,South,179,4.0,15.0,82,0.00,,---,0.00,VWS V14.01,2013-11-16 07:42:00,
2013-11-16 01:47:00,38.3,33.3,29.34,South,174,3.0,15.0,82,0.00,,---,0.00,VWS V14.01,2013-11-16 07:47:00,
2013-11-16 01:52:00,38.3,33.6,29.34,South,174,4.0,15.0,83,0.00,,---,0.00,VWS V14.01,2013-11-16 07:52:00,
2013-11-16 01:57:00,38.3,33.6,29.34,South,169,9.0,15.0,83,0.00,,---,0.00,VWS V14.01,2013-11-16 07:57:00,
2013-11-16 02:02:00,38.4,33.7,29.33,South,173,6.0,7.0,83,0.00,,---,0.00,VWS V14.01,2013-11-16 08:02:00,
2013-11-16 02:07:00,38.6,33.9,29.33,South,179,7.0,10.0,83,0.00,,---,0.00,VWS V14.01,2013-11-16 08:07:00,
2013-11-16 02:12:00,38.6,33.9,29.33,SSE,163,4.0,11.0,83,0.00,,---,0.00,VWS V14.01,2013-11-16 08:12:00,
2013-11-16 02:17:00,38.6,33.9,29.32,South,177,5.0,13.0,83,0.00,,---,0.00,VWS V14.01,2013-11-16 08:17:00,
2013-11-16 02:22:00,38.4,33.7,29.32,SSE,158,7.0,13.0,83,0.00,,---,0.00,VWS V14.01,2013-11-16 08:22:00,
2013-11-16 02:27:00,38.7,34.0,29.32,SSE,164,9.0,13.0,83,0.00,,---,0.00,VWS V14.01,2013-11-16 08:27:00,
2013-11-16 02:32:00,38.9,34.2,29.32,South,174,5.0,6.0,83,0.00,,---,0.00,VWS V14.01,2013-11-16 08:32:00,
2013-11-16 02:37:00,38.9,34.2,29.32,South,169,5.0,12.0,83,0.00,,---,0.00,VWS V14.01,2013-11-16 08:37:00,
2013-11-16 02:42:00,38.9,34.2,29.32,SSW,205,10.0,13.0,83,0.00,,---,0.00,VWS V14.01,2013-11-16 08:42:00,
2013-11-16 02:47:00,38.9,34.2,29.31,SSW,192,12.0,13.0,83,0.00,,---,0.00,VWS V14.01,2013-11-16 08:47:00,
2013-11-16 02:52:00,38.7,34.0,29.31,South,174,10.0,13.0,83,0.00,,---,0.00,VWS V14.01,2013-11-16 08:52:00,
2013-11-16 02:57:00,38.6,33.9,29.31,South,176,5.0,13.0,83,0.00,,---,0.00,VWS V14.01,2013-11-16 08:57:00,
2013-11-16 03:02:00,38.4,34.0,29.32,South,171,6.0,7.0,84,0.00,,---,0.00,VWS V14.01,2013-11-16 09:02:00,
2013-11-16 03:07:00,38.3,33.9,29.32,South,173,5.0,10.0,84,0.00,,---,0.00,VWS V14.01,2013-11-16 09:07:00,
2013-11-16 03:12:00,38.1,33.7,29.32,SSE,167,7.0,10.0,84,0.00,,---,0.00,VWS V14.01,2013-11-16 09:12:00,
2013-11-16 03:17:00,38.0,33.6,29.32,South,174,5.0,11.0,84,0.00,,---,0.00,VWS V14.01,2013-11-16 09:17:00,
2013-11-16 03:22:00,37.9,33.8,29.32,South,172,5.0,12.0,85,0.00,,---,0.00,VWS V14.01,2013-11-16 09:22:00,
2013-11-16 03:27:00,37.7,33.6,29.32,South,170,4.0,12.0,85,0.00,,---,0.00,VWS V14.01,2013-11-16 09:27:00,
2013-11-16 03:32:00,37.9,33.8,29.30,South,171,6.0,6.0,85,0.00,,---,0.00,VWS V14.01,2013-11-16 09:32:00,
2013-11-16 03:37:00,37.7,33.3,29.30,South,170,7.0,7.0,84,0.00,,---,0.00,VWS V14.01,2013-11-16 09:37:00,
2013-11-16 03:42:00,37.3,33.2,29.30,SSE,168,5.0,7.0,85,0.00,,---,0.00,VWS V14.01,2013-11-16 09:42:00,
2013-11-16 03:47:00,37.0,33.2,29.31,South,174,2.0,7.0,86,0.00,,---,0.00,VWS V14.01,2013-11-16 09:47:00,
2013-11-16 03:52:00,36.9,33.1,29.31,South,176,4.0,10.0,86,0.00,,---,0.00,VWS V14.01,2013-11-16 09:52:00,
2013-11-16 03:57:00,36.7,32.9,29.31,South,176,4.0,10.0,86,0.00,,---,0.00,VWS V14.01,2013-11-16 09:57:00,
2013-11-16 04:02:00,36.6,32.8,29.31,South,173,3.0,6.0,86,0.00,,---,0.00,VWS V14.01,2013-11-16 10:02:00,
2013-11-16 04:07:00,36.4,32.9,29.31,SSE,161,8.0,9.0,87,0.00,,---,0.00,VWS V14.01,2013-11-16 10:07:00,
2013-11-16 04:12:00,36.4,32.9,29.31,South,179,4.0,11.0,87,0.00,,---,0.00,VWS V14.01,2013-11-16 10:12:00,
2013-11-16 04:17:00,36.4,32.9,29.31,SSE,160,6.0,11.0,87,0.00,,---,0.00,VWS V14.01,2013-11-16 10:17:00,
2013-11-16 04:22:00,36.6,33.1,29.31,South,172,5.0,11.0,87,0.00,,---,0.00,VWS V14.01,2013-11-16 10:22:00,
2013-11-16 04:27:00,36.7,33.2,29.31,SSE,164,3.0,11.0,87,0.00,,---,0.00,VWS V14.01,2013-11-16 10:27:00,
2013-11-16 04:32:00,36.7,33.2,29.30,SSE,154,3.0,4.0,87,0.00,,---,0.00,VWS V14.01,2013-11-16 10:32:00,
2013-11-16 04:37:00,36.0,32.2,29.30,SE,132,5.0,6.0,86,0.00,,---,0.00,VWS V14.01,2013-11-16 10:37:00,
2013-11-16 04:42:00,34.7,31.2,29.30,SE,139,4.0,6.0,87,0.00,,---,0.00,VWS V14.01,2013-11-16 10:42:00,
2013-11-16 04:47:00,33.9,30.7,29.30,SE,141,5.0,6.0,88,0.00,,---,0.00,VWS V14.01,2013-11-16 10:47:00,
2013-11-16 04:52:00,33.3,30.4,29.30,SE,143,2.0,6.0,89,0.00,,---,0.00,VWS V14.01,2013-11-16 10:52:00,
2013-11-16 04:57:00,32.9,30.0,29.30,SE,141,5.0,6.0,89,0.00,,---,0.00,VWS V14.01,2013-11-16 10:57:00,
2013-11-16 05:02:00,32.8,30.2,29.30,SE,140,4.0,4.0,90,0.00,,---,0.00,VWS V14.01,2013-11-16 11:02:00,
2013-11-16 05:07:00,32.5,29.9,29.30,SE,139,3.0,8.0,90,0.00,,---,0.00,VWS V14.01,2013-11-16 11:07:00,
2013-11-16 05:12:00,32.5,30.2,29.30,SE,143,3.0,8.0,91,0.00,,---,0.00,VWS V14.01,2013-11-16 11:12:00,
2013-11-16 05:17:00,32.6,30.3,29.30,SE,141,6.0,10.0,91,0.00,,---,0.00,VWS V14.01,2013-11-16 11:17:00,
2013-11-16 05:22:00,32.8,30.7,29.30,SE,142,5.0,11.0,92,0.00,,---,0.00,VWS V14.01,2013-11-16 11:22:00,
2013-11-16 05:27:00,32.9,30.8,29.30,SE,134,6.0,11.0,92,0.00,,---,0.00,VWS V14.01,2013-11-16 11:27:00,
2013-11-16 05:32:00,33.3,31.5,29.28,SE,143,9.0,9.0,93,0.00,,---,0.00,VWS V14.01,2013-11-16 11:32:00,
2013-11-16 05:37:00,33.5,31.7,29.28,SE,146,6.0,12.0,93,0.00,,---,0.00,VWS V14.01,2013-11-16 11:37:00,
2013-11-16 05:42:00,33.5,31.7,29.28,SE,131,9.0,12.0,93,0.00,,---,0.00,VWS V14.01,2013-11-16 11:42:00,
2013-11-16 05:47:00,33.6,31.8,29.27,SE,140,7.0,12.0,93,0.00,,---,0.00,VWS V14.01,2013-11-16 11:47:00,
2013-11-16 05:52:00,33.6,31.8,29.27,SE,141,9.0,12.0,93,0.00,,---,0.00,VWS V14.01,2013-11-16 11:52:00,
2013-11-16 05:57:00,33.6,31.8,29.27,SE,133,9.0,13.0,93,0.00,,---,0.00,VWS V14.01,2013-11-16 11:57:00,
2013-11-16 06:02:00,33.6,31.8,29.26,SE,145,9.0,13.0,93,0.00,,---,0.00,VWS V14.01,2013-11-16 12:02:00,
2013-11-16 06:07:00,33.5,31.7,29.26,SSE,150,4.0,14.0,93,0.00,,---,0.00,VWS V14.01,2013-11-16 12:07:00,
2013-11-16 06:12:00,33.8,32.0,29.26,SSE,153,12.0,14.0,93,0.00,,---,0.00,VWS V14.01,2013-11-16 12:12:00,
2013-11-16 06:17:00,33.9,32.1,29.27,SSE,148,9.0,14.0,93,0.00,,---,0.00,VWS V14.01,2013-11-16 12:17:00,
2013-11-16 06:22:00,33.9,32.1,29.27,SSE,147,3.0,14.0,93,0.00,,---,0.00,VWS V14.01,2013-11-16 12:22:00,
2013-11-16 06:27:00,33.9,32.1,29.27,SE,146,3.0,14.0,93,0.00,,---,0.00,VWS V14.01,2013-11-16 12:27:00,
2013-11-16 06:32:00,34.1,32.3,29.27,SSE,148,4.0,14.0,93,0.00,,---,0.00,VWS V14.01,2013-11-16 12:32:00,
2013-11-16 06:37:00,34.2,32.4,29.27,SE,140,10.0,11.0,93,0.00,,---,0.00,VWS V14.01,2013-11-16 12:37:00,
2013-11-16 06:42:00,34.2,32.7,29.27,SSE,149,7.0,11.0,94,0.00,,---,0.00,VWS V14.01,2013-11-16 12:42:00,
2013-11-16 06:47:00,34.2,32.7,29.26,SE,143,4.0,11.0,94,0.00,,---,0.00,VWS V14.01,2013-11-16 12:47:00,
2013-11-16 06:52:00,34.4,32.9,29.26,SSE,152,3.0,11.0,94,0.00,,---,0.00,VWS V14.01,2013-11-16 12:52:00,
2013-11-16 06:56:00,34.8,33.2,29.26,SSE,156,10.0,11.0,94,0.00,,---,0.00,VWS V14.01,2013-11-16 12:56:00,
2013-11-16 07:01:00,35.1,33.5,29.26,SSE,158,8.0,11.0,94,0.00,,---,0.00,VWS V14.01,2013-11-16 13:01:00,
2013-11-16 07:06:00,35.3,33.8,29.26,SSE,159,6.0,11.0,94,0.00,,---,0.00,VWS V14.01,2013-11-16 13:06:00,
2013-11-16 07:11:00,35.4,33.8,29.26,SSE,147,5.0,13.0,94,0.00,,---,0.00,VWS V14.01,2013-11-16 13:11:00,
2013-11-16 07:16:00,35.6,34.0,29.26,SE,144,6.0,14.0,94,0.00,,---,0.00,VWS V14.01,2013-11-16 13:16:00,
2013-11-16 07:21:00,35.7,34.2,29.26,SSE,154,5.0,14.0,94,0.00,,---,0.00,VWS V14.01,2013-11-16 13:21:00,
2013-11-16 07:26:00,35.9,34.6,29.26,SSE,167,4.0,14.0,95,0.00,,---,0.00,VWS V14.01,2013-11-16 13:26:00,
2013-11-16 07:31:00,35.9,34.6,29.28,South,173,5.0,14.0,95,0.00,,---,0.00,VWS V14.01,2013-11-16 13:31:00,
2013-11-16 07:36:00,36.0,34.7,29.28,South,170,7.0,11.0,95,0.00,,---,0.00,VWS V14.01,2013-11-16 13:36:00,
2013-11-16 07:41:00,36.1,34.8,29.28,SSE,164,4.0,11.0,95,0.00,,---,0.00,VWS V14.01,2013-11-16 13:41:00,
2013-11-16 07:46:00,36.3,35.3,29.28,SSE,162,8.0,11.0,96,0.00,,---,0.00,VWS V14.01,2013-11-16 13:46:00,
2013-11-16 07:51:00,36.6,35.6,29.28,SSE,160,9.0,11.0,96,0.00,,---,0.00,VWS V14.01,2013-11-16 13:51:00,
2013-11-16 07:56:00,36.7,35.7,29.28,SSE,165,4.0,11.0,96,0.00,,---,0.00,VWS V14.01,2013-11-16 13:56:00,
2013-11-16 08:01:00,37.0,36.0,29.28,SE,125,5.0,11.0,96,0.00,,---,0.00,VWS V14.01,2013-11-16 14:01:00,
2013-11-16 08:06:00,37.1,36.1,29.28,SSE,160,4.0,9.0,96,0.00,,---,0.00,VWS V14.01,2013-11-16 14:06:00,
2013-11-16 08:11:00,37.3,36.3,29.28,South,170,6.0,9.0,96,0.00,,---,0.00,VWS V14.01,2013-11-16 14:11:00,
2013-11-16 08:16:00,37.4,36.4,29.28,SE,146,9.0,12.0,96,0.00,,---,0.00,VWS V14.01,2013-11-16 14:16:00,
2013-11-16 08:21:00,37.4,36.4,29.28,SSE,154,4.0,12.0,96,0.00,,---,0.00,VWS V14.01,2013-11-16 14:21:00,
2013-11-16 08:26:00,37.6,36.6,29.28,SE,142,6.0,12.0,96,0.00,,---,0.00,VWS V14.01,2013-11-16 14:26:00,
2013-11-16 08:31:00,37.7,36.9,29.26,SE,138,9.0,12.0,97,0.00,,---,0.00,VWS V14.01,2013-11-16 14:31:00,
2013-11-16 08:36:00,37.9,37.1,29.26,SE,136,9.0,15.0,97,0.00,,---,0.00,VWS V14.01,2013-11-16 14:36:00,
2013-11-16 08:41:00,38.0,37.2,29.26,SE,143,9.0,15.0,97,0.00,,---,0.00,VWS V14.01,2013-11-16 14:41:00,
2013-11-16 08:46:00,38.1,37.3,29.26,SSE,156,8.0,15.0,97,0.00,,---,0.00,VWS V14.01,2013-11-16 14:46:00,
2013-11-16 08:51:00,38.3,37.5,29.26,South,174,14.0,15.0,97,0.00,,---,0.00,VWS V14.01,2013-11-16 14:51:00,
2013-11-16 08:56:00,38.4,37.6,29.26,SE,141,4.0,15.0,97,0.00,,---,0.00,VWS V14.01,2013-11-16 14:56:00,
2013-11-16 09:01:00,38.6,37.8,29.26,SE,143,9.0,15.0,97,0.00,,---,0.00,VWS V14.01,2013-11-16 15:01:00,
2013-11-16 09:06:00,38.9,38.1,29.26,SE,139,5.0,14.0,97,0.00,,---,0.00,VWS V14.01,2013-11-16 15:06:00,
2013-11-16 09:11:00,39.0,38.2,29.26,SSE,158,4.0,14.0,97,0.00,,---,0.00,VWS V14.01,2013-11-16 15:11:00,
2013-11-16 09:16:00,39.2,38.4,29.25,SE,139,6.0,14.0,97,0.00,,---,0.00,VWS V14.01,2013-11-16 15:16:00,
2013-11-16 09:21:00,39.3,38.5,29.25,SE,132,4.0,14.0,97,0.00,,---,0.00,VWS V14.01,2013-11-16 15:21:00,
2013-11-16 09:26:00,39.4,38.6,29.25,SE,128,9.0,14.0,97,0.00,,---,0.00,VWS V14.01,2013-11-16 15:26:00,
2013-11-16 09:31:00,39.6,38.8,29.23,SE,129,6.0,14.0,97,0.00,,---,0.00,VWS V14.01,2013-11-16 15:31:00,
2013-11-16 09:36:00,39.7,38.9,29.23,ESE,123,3.0,7.0,97,0.00,,---,0.00,VWS V14.01,2013-11-16 15:36:00,
2013-11-16 09:41:00,40.0,39.2,29.23,SE,124,4.0,8.0,97,0.00,,---,0.00,VWS V14.01,2013-11-16 15:41:00,
2013-11-16 09:46:00,40.2,39.4,29.21,SE,134,7.0,9.0,97,0.00,,---,0.00,VWS V14.01,2013-11-16 15:46:00,
2013-11-16 09:51:00,40.4,39.9,29.21,SSE,147,3.0,11.0,98,0.00,,---,0.00,VWS V14.01,2013-11-16 15:51:00,
2013-11-16 09:56:00,40.7,40.2,29.21,SE,141,6.0,13.0,98,0.00,,---,0.00,VWS V14.01,2013-11-16 15:56:00,
2013-11-16 10:01:00,40.9,40.4,29.21,SE,142,4.0,13.0,98,0.00,,---,0.00,VWS V14.01,2013-11-16 16:01:00,
2013-11-16 10:06:00,41.0,40.5,29.21,SE,143,4.0,8.0,98,0.00,,---,0.00,VWS V14.01,2013-11-16 16:06:00,
2013-11-16 10:11:00,41.0,40.5,29.21,SE,136,2.0,8.0,98,0.00,,---,0.00,VWS V14.01,2013-11-16 16:11:00,
2013-11-16 10:16:00,41.2,40.7,29.20,SE,137,1.0,12.0,98,0.00,,---,0.00,VWS V14.01,2013-11-16 16:16:00,
2013-11-16 10:21:00,41.3,40.8,29.20,SE,127,6.0,12.0,98,0.00,,---,0.00,VWS V14.01,2013-11-16 16:21:00,
2013-11-16 10:26:00,41.3,40.8,29.20,ESE,122,2.0,12.0,98,0.00,,---,0.00,VWS V14.01,2013-11-16 16:26:00,
2013-11-16 10:31:00,41.6,41.1,29.18,ESE,106,5.0,12.0,98,0.00,,---,0.00,VWS V14.01,2013-11-16 16:31:00,
2013-11-16 10:36:00,41.9,41.4,29.18,East,101,4.0,9.0,98,0.00,,---,0.00,VWS V14.01,2013-11-16 16:36:00,
2013-11-16 10:41:00,42.2,41.7,29.18,East,93,1.0,12.0,98,0.00,,---,0.00,VWS V14.01,2013-11-16 16:41:00,
2013-11-16 10:46:00,42.3,41.8,29.16,ESE,107,4.0,12.0,98,0.00,,---,0.00,VWS V14.01,2013-11-16 16:46:00,
2013-11-16 10:51:00,42.6,42.1,29.16,East,101,4.0,12.0,98,0.00,,---,0.00,VWS V14.01,2013-11-16 16:51:00,
2013-11-16 10:56:00,42.9,42.4,29.16,East,94,4.0,14.0,98,0.00,,---,0.00,VWS V14.01,2013-11-16 16:56:00,
2013-11-16 11:01:00,43.3,42.8,29.15,SSE,155,12.0,16.0,98,0.00,,---,0.00,VWS V14.01,2013-11-16 17:01:00,
2013-11-16 11:06:00,43.6,43.1,29.15,SE,127,12.0,15.0,98,0.00,,---,0.00,VWS V14.01,2013-11-16 17:06:00,
2013-11-16 11:12:00,43.6,43.1,29.15,SE,145,14.0,19.0,98,0.00,,---,0.00,VWS V14.01,2013-11-16 17:12:00,
2013-11-16 11:17:00,43.4,42.9,29.16,SE,139,16.0,19.0,98,0.00,,---,0.00,VWS V14.01,2013-11-16 17:17:00,
2013-11-16 11:22:00,43.3,42.8,29.16,SSE,155,10.0,19.0,98,0.00,,---,0.00,VWS V14.01,2013-11-16 17:22:00,
2013-11-16 11:27:00,43.4,42.9,29.16,SSE,160,10.0,19.0,98,0.00,,---,0.00,VWS V14.01,2013-11-16 17:27:00,
2013-11-16 11:32:00,43.6,43.1,29.15,SSE,158,5.0,19.0,98,0.00,,---,0.00,VWS V14.01,2013-11-16 17:32:00,
2013-11-16 11:37:00,43.7,43.2,29.15,SSE,158,2.0,13.0,98,0.00,,---,0.00,VWS V14.01,2013-11-16 17:37:00,
2013-11-16 11:42:00,43.9,43.4,29.15,SSE,167,10.0,13.0,98,0.00,,---,0.00,VWS V14.01,2013-11-16 17:42:00,
2013-11-16 11:47:00,43.9,43.4,29.15,SSE,162,1.0,13.0,98,0.00,,---,0.00,VWS V14.01,2013-11-16 17:47:00,
2013-11-16 11:52:00,44.0,43.5,29.15,SSE,167,7.0,13.0,98,0.00,,---,0.00,VWS V14.01,2013-11-16 17:52:00,
2013-11-16 11:57:00,43.7,42.9,29.15,SSE,160,11.0,13.0,97,0.00,,---,0.00,VWS V14.01,2013-11-16 17:57:00,
2013-11-16 12:02:00,43.4,42.6,29.15,South,169,10.0,13.0,97,0.00,,---,0.00,VWS V14.01,2013-11-16 18:02:00,
2013-11-16 12:07:00,43.4,42.6,29.15,SE,143,6.0,10.0,97,0.00,,---,0.00,VWS V14.01,2013-11-16 18:07:00,
2013-11-16 12:12:00,43.6,42.8,29.15,SE,144,4.0,10.0,97,0.00,,---,0.00,VWS V14.01,2013-11-16 18:12:00,
2013-11-16 12:17:00,43.4,42.6,29.15,SSE,150,4.0,10.0,97,0.00,,---,0.00,VWS V14.01,2013-11-16 18:17:00,
2013-11-16 12:22:00,43.4,42.6,29.15,SSE,148,3.0,10.0,97,0.00,,---,0.00,VWS V14.01,2013-11-16 18:22:00,
2013-11-16 12:27:00,43.4,42.6,29.15,SSE,158,3.0,10.0,97,0.00,,---,0.00,VWS V14.01,2013-11-16 18:27:00,
2013-11-16 12:32:00,43.4,42.6,29.16,South,170,3.0,10.0,97,0.00,,---,0.00,VWS V14.01,2013-11-16 18:32:00,
2013-11-16 12:37:00,43.6,42.8,29.16,South,169,1.0,5.0,97,0.00,,---,0.00,VWS V14.01,2013-11-16 18:37:00,
2013-11-16 12:42:00,43.6,42.8,29.16,South,172,1.0,6.0,97,0.00,,---,0.00,VWS V14.01,2013-11-16 18:42:00,
2013-11-16 12:47:00,43.6,42.8,29.16,South,173,0.0,6.0,97,0.00,,---,0.00,VWS V14.01,2013-11-16 18:47:00,
2013-11-16 12:52:00,43.7,42.9,29.16,South,176,2.0,6.0,97,0.00,,---,0.00,VWS V14.01,2013-11-16 18:52:00,
2013-11-16 12:57:00,43.9,43.4,29.16,South,180,3.0,9.0,98,0.00,,---,0.00,VWS V14.01,2013-11-16 18:57:00,
2013-11-16 13:01:00,43.9,43.4,29.16,South,181,2.0,9.0,98,0.00,,---,0.00,VWS V14.01,2013-11-16 19:01:00,
2013-11-16 13:06:00,43.9,43.1,29.16,South,182,3.0,6.0,97,0.00,,---,0.00,VWS V14.01,2013-11-16 19:06:00,
2013-11-16 13:11:00,43.7,42.9,29.16,South,182,3.0,6.0,97,0.00,,---,0.00,VWS V14.01,2013-11-16 19:11:00,
2013-11-16 13:16:00,43.7,42.9,29.16,South,185,3.0,6.0,97,0.00,,---,0.00,VWS V14.01,2013-11-16 19:16:00,
2013-11-16 13:21:00,43.7,42.9,29.16,South,186,2.0,6.0,97,0.00,,---,0.00,VWS V14.01,2013-11-16 19:21:00,
2013-11-16 13:26:00,43.7,42.9,29.16,South,187,1.0,6.0,97,0.00,,---,0.00,VWS V14.01,2013-11-16 19:26:00,
2013-11-16 13:31:00,43.6,42.8,29.16,South,191,1.0,6.0,97,0.00,,---,0.00,VWS V14.01,2013-11-16 19:31:00,
2013-11-16 13:36:00,43.6,42.8,29.16,SSW,192,2.0,5.0,97,0.00,,---,0.00,VWS V14.01,2013-11-16 19:36:00,
2013-11-16 13:41:00,43.7,42.9,29.16,SSW,194,3.0,6.0,97,0.00,,---,0.00,VWS V14.01,2013-11-16 19:41:00,
2013-11-16 13:46:00,43.7,42.9,29.14,SSW,194,1.0,6.0,97,0.00,,---,0.00,VWS V14.01,2013-11-16 19:46:00,
2013-11-16 13:51:00,43.7,42.9,29.14,SSW,194,0.0,6.0,97,0.00,,---,0.00,VWS V14.01,2013-11-16 19:51:00,
2013-11-16 13:56:00,43.7,42.9,29.14,SSW,194,1.0,6.0,97,0.00,,---,0.00,VWS V14.01,2013-11-16 19:56:00,
2013-11-16 14:01:00,43.9,43.1,29.14,SSW,194,1.0,6.0,97,0.00,,---,0.00,VWS V14.01,2013-11-16 20:01:00,
2013-11-16 14:06:00,43.9,43.1,29.14,SSW,194,2.0,3.0,97,0.00,,---,0.00,VWS V14.01,2013-11-16 20:06:00,
2013-11-16 14:11:00,44.0,43.2,29.14,SSW,194,0.0,4.0,97,0.00,,---,0.00,VWS V14.01,2013-11-16 20:11:00,
2013-11-16 14:16:00,44.0,43.2,29.13,SSW,193,2.0,4.0,97,0.00,,---,0.00,VWS V14.01,2013-11-16 20:16:00,
2013-11-16 14:21:00,44.2,43.4,29.13,SSW,193,1.0,4.0,97,0.00,,---,0.00,VWS V14.01,2013-11-16 20:21:00,
2013-11-16 14:26:00,44.3,43.8,29.13,SSW,193,0.0,4.0,98,0.00,,---,0.00,VWS V14.01,2013-11-16 20:26:00,
2013-11-16 14:31:00,44.4,43.9,29.11,SSW,193,3.0,4.0,98,0.00,,---,0.00,VWS V14.01,2013-11-16 20:31:00,
2013-11-16 14:36:00,44.4,43.6,29.11,South,173,5.0,5.0,97,0.00,,---,0.00,VWS V14.01,2013-11-16 20:36:00,
2013-11-16 14:41:00,44.3,43.5,29.11,SSE,161,3.0,5.0,97,0.00,,---,0.00,VWS V14.01,2013-11-16 20:41:00,
2013-11-16 14:46:00,44.3,43.5,29.11,SSE,161,3.0,6.0,97,0.00,,---,0.00,VWS V14.01,2013-11-16 20:46:00,
2013-11-16 14:51:00,44.4,43.6,29.11,SSE,166,4.0,6.0,97,0.00,,---,0.00,VWS V14.01,2013-11-16 20:51:00,
2013-11-16 14:56:00,44.3,43.5,29.11,SSE,167,2.0,6.0,97,0.00,,---,0.00,VWS V14.01,2013-11-16 20:56:00,
2013-11-16 15:01:00,44.3,43.5,29.12,South,171,2.0,6.0,97,0.00,,---,0.00,VWS V14.01,2013-11-16 21:01:00,
2013-11-16 15:06:00,44.3,43.5,29.12,South,171,4.0,5.0,97,0.00,,---,0.00,VWS V14.01,2013-11-16 21:06:00,
2013-11-16 15:11:00,44.3,43.5,29.12,South,172,1.0,5.0,97,0.00,,---,0.00,VWS V14.01,2013-11-16 21:11:00,
2013-11-16 15:16:00,44.3,43.5,29.12,South,172,1.0,5.0,97,0.00,,---,0.00,VWS V14.01,2013-11-16 21:16:00,
2013-11-16 15:21:00,44.3,43.5,29.12,South,173,4.0,5.0,97,0.00,,---,0.00,VWS V14.01,2013-11-16 21:21:00,
2013-11-16 15:26:00,44.3,43.5,29.12,South,176,1.0,5.0,97,0.00,,---,0.00,VWS V14.01,2013-11-16 21:26:00,
2013-11-16 15:31:00,44.3,43.5,29.13,South,176,0.0,5.0,97,0.00,,---,0.00,VWS V14.01,2013-11-16 21:31:00,
2013-11-16 15:36:00,44.4,43.3,29.13,South,176,0.0,3.0,96,0.00,,---,0.00,VWS V14.01,2013-11-16 21:36:00,
2013-11-16 15:41:00,44.3,43.2,29.13,South,176,0.0,3.0,96,0.00,,---,0.00,VWS V14.01,2013-11-16 21:41:00,
2013-11-16 15:46:00,44.3,43.2,29.14,South,176,2.0,3.0,96,0.00,,---,0.00,VWS V14.01,2013-11-16 21:46:00,
2013-11-16 15:51:00,44.3,43.2,29.14,South,176,0.0,3.0,96,0.00,,---,0.00,VWS V14.01,2013-11-16 21:51:00,
2013-11-16 15:56:00,44.3,43.2,29.14,South,176,1.0,4.0,96,0.00,,---,0.00,VWS V14.01,2013-11-16 21:56:00,
2013-11-16 16:01:00,44.3,43.2,29.15,South,176,0.0,4.0,96,0.00,,---,0.00,VWS V14.01,2013-11-16 22:01:00,
2013-11-16 16:06:00,44.4,43.3,29.15,South,177,1.0,4.0,96,0.00,,---,0.00,VWS V14.01,2013-11-16 22:06:00,
2013-11-16 16:11:00,44.4,43.3,29.15,South,179,1.0,5.0,96,0.00,,---,0.00,VWS V14.01,2013-11-16 22:11:00,
2013-11-16 16:16:00,44.4,43.3,29.16,South,179,0.0,5.0,96,0.00,,---,0.00,VWS V14.01,2013-11-16 22:16:00,
2013-11-16 16:21:00,44.3,43.2,29.16,South,179,2.0,5.0,96,0.00,,---,0.00,VWS V14.01,2013-11-16 22:21:00,
2013-11-16 16:26:00,44.3,43.0,29.16,South,179,0.0,5.0,95,0.00,,---,0.00,VWS V14.01,2013-11-16 22:26:00,
2013-11-16 16:31:00,44.3,43.0,29.15,South,179,0.0,5.0,95,0.00,,---,0.00,VWS V14.01,2013-11-16 22:31:00,
2013-11-16 16:36:00,44.3,43.0,29.15,South,179,0.0,1.0,95,0.00,,---,0.00,VWS V14.01,2013-11-16 22:36:00,
2013-11-16 16:41:00,44.3,43.0,29.15,South,179,0.0,2.0,95,0.00,,---,0.00,VWS V14.01,2013-11-16 22:41:00,
2013-11-16 16:46:00,44.2,42.9,29.15,South,179,0.0,2.0,95,0.00,,---,0.00,VWS V14.01,2013-11-16 22:46:00,
2013-11-16 16:51:00,44.2,42.9,29.15,South,179,1.0,3.0,95,0.00,,---,0.00,VWS V14.01,2013-11-16 22:51:00,
2013-11-16 16:56:00,44.0,42.7,29.15,South,180,3.0,3.0,95,0.00,,---,0.00,VWS V14.01,2013-11-16 22:56:00,
2013-11-16 17:01:00,43.7,42.1,29.16,SSW,207,2.0,5.0,94,0.00,,---,0.00,VWS V14.01,2013-11-16 23:01:00,
2013-11-16 17:06:00,43.6,42.0,29.16,SSW,207,1.0,3.0,94,0.00,,---,0.00,VWS V14.01,2013-11-16 23:06:00,
2013-11-16 17:11:00,43.4,41.8,29.16,SSW,212,1.0,5.0,94,0.00,,---,0.00,VWS V14.01,2013-11-16 23:11:00,
2013-11-16 17:16:00,43.4,41.5,29.16,SSW,212,1.0,5.0,93,0.00,,---,0.00,VWS V14.01,2013-11-16 23:16:00,
2013-11-16 17:21:00,43.3,41.4,29.16,SSW,212,0.0,5.0,93,0.00,,---,0.00,VWS V14.01,2013-11-16 23:21:00,
2013-11-16 17:26:00,43.4,41.5,29.16,SSW,212,1.0,5.0,93,0.00,,---,0.00,VWS V14.01,2013-11-16 23:26:00,
2013-11-16 17:31:00,43.3,41.1,29.16,SW,215,1.0,5.0,92,0.00,,---,0.00,VWS V14.01,2013-11-16 23:31:00,
2013-11-16 17:36:00,42.9,40.7,29.16,SW,218,2.0,4.0,92,0.00,,---,0.00,VWS V14.01,2013-11-16 23:36:00,
2013-11-16 17:41:00,42.6,40.4,29.16,SW,218,3.0,4.0,92,0.00,,---,0.00,VWS V14.01,2013-11-16 23:41:00,
2013-11-16 17:46:00,42.4,40.2,29.17,SW,219,1.0,4.0,92,0.00,,---,0.00,VWS V14.01,2013-11-16 23:46:00,
2013-11-16 17:51:00,42.4,40.2,29.17,SW,221,3.0,5.0,92,0.00,,---,0.00,VWS V14.01,2013-11-16 23:51:00,
2013-11-16 17:56:00,42.7,40.5,29.17,SW,222,2.0,5.0,92,0.00,,---,0.00,VWS V14.01,2013-11-16 23:56:00,
2013-11-16 18:01:00,42.7,40.3,29.17,SW,223,2.0,5.0,91,0.00,,---,0.00,VWS V14.01,2013-11-17 00:01:00,
2013-11-16 18:06:00,42.4,40.0,29.17,SW,223,2.0,5.0,91,0.00,,---,0.00,VWS V14.01,2013-11-17 00:06:00,
2013-11-16 18:11:00,42.4,40.0,29.17,SW,223,1.0,5.0,91,0.00,,---,0.00,VWS V14.01,2013-11-17 00:11:00,
2013-11-16 18:16:00,42.4,40.0,29.18,SW,224,1.0,5.0,91,0.00,,---,0.00,VWS V14.01,2013-11-17 00:16:00,
2013-11-16 18:21:00,42.6,40.2,29.18,SW,224,2.0,5.0,91,0.00,,---,0.00,VWS V14.01,2013-11-17 00:21:00,
2013-11-16 18:26:00,42.4,40.0,29.18,SW,224,0.0,5.0,91,0.00,,---,0.00,VWS V14.01,2013-11-17 00:26:00,
2013-11-16 18:31:00,42.4,40.0,29.18,SW,225,2.0,5.0,91,0.00,,---,0.00,VWS V14.01,2013-11-17 00:31:00,
2013-11-16 18:36:00,42.3,39.9,29.18,SW,226,2.0,4.0,91,0.00,,---,0.00,VWS V14.01,2013-11-17 00:36:00,
2013-11-16 18:41:00,42.0,39.6,29.18,SW,226,3.0,4.0,91,0.00,,---,0.00,VWS V14.01,2013-11-17 00:41:00,
2013-11-16 18:46:00,41.6,39.2,29.19,SW,226,2.0,4.0,91,0.00,,---,0.00,VWS V14.01,2013-11-17 00:46:00,
2013-11-16 18:51:00,40.9,38.5,29.19,SW,226,0.0,4.0,91,0.00,,---,0.00,VWS V14.01,2013-11-17 00:51:00,
2013-11-16 18:56:00,40.2,37.8,29.19,SW,226,1.0,4.0,91,0.00,,---,0.00,VWS V14.01,2013-11-17 00:56:00,
2013-11-16 19:02:00,39.6,37.2,29.19,SW,226,0.0,4.0,91,0.00,,---,0.00,VWS V14.01,2013-11-17 01:02:00,
2013-11-16 19:07:00,39.3,37.2,29.19,SW,226,1.0,4.0,92,0.00,,---,0.00,VWS V14.01,2013-11-17 01:07:00,
2013-11-16 19:12:00,39.7,37.8,29.19,SW,226,1.0,4.0,93,0.00,,---,0.00,VWS V14.01,2013-11-17 01:12:00,
2013-11-16 19:17:00,40.2,38.6,29.19,SW,226,0.0,4.0,94,0.00,,---,0.00,VWS V14.01,2013-11-17 01:17:00,
2013-11-16 19:22:00,40.2,38.3,29.19,SW,226,0.0,4.0,93,0.00,,---,0.00,VWS V14.01,2013-11-17 01:22:00,
2013-11-16 19:27:00,39.9,38.0,29.19,SW,226,1.0,4.0,93,0.00,,---,0.00,VWS V14.01,2013-11-17 01:27:00,
2013-11-16 19:31:00,39.9,38.3,29.20,SW,226,2.0,4.0,94,0.00,,---,0.00,VWS V14.01,2013-11-17 01:31:00,
2013-11-16 19:37:00,40.0,38.4,29.20,SW,226,1.0,4.0,94,0.00,,---,0.00,VWS V14.01,2013-11-17 01:37:00,
2013-11-16 19:42:00,40.0,38.4,29.20,SW,226,0.0,4.0,94,0.00,,---,0.00,VWS V14.01,2013-11-17 01:42:00,
2013-11-16 19:47:00,39.9,38.3,29.19,SW,226,0.0,4.0,94,0.00,,---,0.00,VWS V14.01,2013-11-17 01:47:00,
2013-11-16 19:52:00,39.6,38.0,29.19,SW,226,0.0,4.0,94,0.00,,---,0.00,VWS V14.01,2013-11-17 01:52:00,
2013-11-16 19:57:00,39.3,37.7,29.19,SW,226,0.0,4.0,94,0.00,,---,0.00,VWS V14.01,2013-11-17 01:57:00,
2013-11-16 20:02:00,39.0,37.4,29.19,SW,226,0.0,4.0,94,0.00,,---,0.00,VWS V14.01,2013-11-17 02:02:00,
2013-11-16 20:06:00,38.9,37.3,29.19,SW,226,3.0,3.0,94,0.00,,---,0.00,VWS V14.01,2013-11-17 02:06:00,
2013-11-16 20:11:00,39.4,38.1,29.19,SW,226,3.0,3.0,95,0.00,,---,0.00,VWS V14.01,2013-11-17 02:11:00,
2013-11-16 20:16:00,39.7,38.4,29.20,SW,226,1.0,3.0,95,0.00,,---,0.00,VWS V14.01,2013-11-17 02:16:00,
2013-11-16 20:21:00,39.9,38.6,29.20,SW,226,1.0,5.0,95,0.00,,---,0.00,VWS V14.01,2013-11-17 02:21:00,
2013-11-16 20:26:00,39.9,38.6,29.20,SW,227,2.0,5.0,95,0.00,,---,0.00,VWS V14.01,2013-11-17 02:26:00,
2013-11-16 20:31:00,40.0,38.7,29.20,SW,230,1.0,6.0,95,0.00,,---,0.00,VWS V14.01,2013-11-17 02:31:00,
2013-11-16 20:36:00,40.0,38.7,29.20,SW,231,2.0,6.0,95,0.00,,---,0.00,VWS V14.01,2013-11-17 02:36:00,
2013-11-16 20:41:00,39.9,38.6,29.20,SW,232,2.0,6.0,95,0.00,,---,0.00,VWS V14.01,2013-11-17 02:41:00,
2013-11-16 20:46:00,39.6,38.3,29.20,SW,233,1.0,6.0,95,0.00,,---,0.00,VWS V14.01,2013-11-17 02:46:00,
2013-11-16 20:51:00,39.3,38.0,29.20,SW,234,2.0,6.0,95,0.00,,---,0.00,VWS V14.01,2013-11-17 02:51:00,
2013-11-16 20:57:00,39.2,37.9,29.20,SW,236,2.0,6.0,95,0.00,,---,0.00,VWS V14.01,2013-11-17 02:57:00,
2013-11-16 21:02:00,39.2,37.9,29.21,WSW,239,3.0,6.0,95,0.00,,---,0.00,VWS V14.01,2013-11-17 03:02:00,
2013-11-16 21:07:00,39.3,38.0,29.21,WSW,239,1.0,4.0,95,0.00,,---,0.00,VWS V14.01,2013-11-17 03:07:00,
2013-11-16 21:12:00,39.4,38.1,29.21,WSW,239,3.0,5.0,95,0.00,,---,0.00,VWS V14.01,2013-11-17 03:12:00,
2013-11-16 21:17:00,39.7,38.4,29.22,WSW,240,0.0,5.0,95,0.00,,---,0.00,VWS V14.01,2013-11-17 03:17:00,
2013-11-16 21:22:00,39.6,38.3,29.22,WSW,240,4.0,5.0,95,0.00,,---,0.00,VWS V14.01,2013-11-17 03:22:00,
2013-11-16 21:27:00,39.6,38.3,29.22,WSW,241,3.0,5.0,95,0.00,,---,0.00,VWS V14.01,2013-11-17 03:27:00,
2013-11-16 21:32:00,39.4,38.1,29.23,WSW,246,4.0,6.0,95,0.00,,---,0.00,VWS V14.01,2013-11-17 03:32:00,
2013-11-16 21:37:00,39.6,38.3,29.23,WSW,247,0.0,5.0,95,0.00,,---,0.00,VWS V14.01,2013-11-17 03:37:00,
2013-11-16 21:42:00,39.4,38.1,29.23,WSW,247,1.0,5.0,95,0.00,,---,0.00,VWS V14.01,2013-11-17 03:42:00,
2013-11-16 21:47:00,39.3,38.0,29.22,WSW,247,2.0,5.0,95,0.00,,---,0.00,VWS V14.01,2013-11-17 03:47:00,
2013-11-16 21:52:00,39.3,38.0,29.22,WSW,247,0.0,5.0,95,0.00,,---,0.00,VWS V14.01,2013-11-17 03:52:00,
2013-11-16 21:57:00,39.2,38.2,29.22,WSW,247,0.0,5.0,96,0.00,,---,0.00,VWS V14.01,2013-11-17 03:57:00,
2013-11-16 22:02:00,39.2,38.2,29.23,WSW,247,0.0,5.0,96,0.00,,---,0.00,VWS V14.01,2013-11-17 04:02:00,
2013-11-16 22:07:00,39.3,38.3,29.23,WSW,247,0.0,1.0,96,0.00,,---,0.00,VWS V14.01,2013-11-17 04:07:00,
2013-11-16 22:12:00,39.6,38.6,29.23,WSW,247,0.0,1.0,96,0.00,,---,0.00,VWS V14.01,2013-11-17 04:12:00,
2013-11-16 22:17:00,39.6,38.6,29.23,WSW,247,0.0,2.0,96,0.00,,---,0.00,VWS V14.01,2013-11-17 04:17:00,
2013-11-16 22:22:00,39.7,38.7,29.23,WSW,247,0.0,2.0,96,0.00,,---,0.00,VWS V14.01,2013-11-17 04:22:00,
2013-11-16 22:27:00,39.7,38.7,29.23,WSW,247,0.0,2.0,96,0.00,,---,0.00,VWS V14.01,2013-11-17 04:27:00,
2013-11-16 22:32:00,39.9,38.8,29.23,WSW,247,0.0,2.0,96,0.00,,---,0.00,VWS V14.01,2013-11-17 04:32:00,
2013-11-16 22:37:00,39.9,38.8,29.23,WSW,247,1.0,1.0,96,0.00,,---,0.00,VWS V14.01,2013-11-17 04:37:00,
2013-11-16 22:42:00,39.9,38.8,29.23,WSW,247,0.0,2.0,96,0.00,,---,0.00,VWS V14.01,2013-11-17 04:42:00,
2013-11-16 22:47:00,39.9,38.8,29.24,WSW,247,0.0,2.0,96,0.00,,---,0.00,VWS V14.01,2013-11-17 04:47:00,
2013-11-16 22:52:00,39.9,38.8,29.24,WSW,247,0.0,2.0,96,0.00,,---,0.00,VWS V14.01,2013-11-17 04:52:00,
2013-11-16 22:57:00,39.9,38.8,29.24,WSW,247,2.0,3.0,96,0.00,,---,0.00,VWS V14.01,2013-11-17 04:57:00,
2013-11-16 23:01:00,39.9,38.8,29.24,WSW,247,0.0,3.0,96,0.00,,---,0.00,VWS V14.01,2013-11-17 05:01:00,
2013-11-16 23:06:00,39.7,38.7,29.24,WSW,247,0.0,4.0,96,0.00,,---,0.00,VWS V14.01,2013-11-17 05:06:00,
2013-11-16 23:11:00,39.7,38.7,29.24,WSW,247,2.0,4.0,96,0.00,,---,0.00,VWS V14.01,2013-11-17 05:11:00,
2013-11-16 23:16:00,39.6,38.6,29.24,WSW,247,1.0,4.0,96,0.00,,---,0.00,VWS V14.01,2013-11-17 05:16:00,
2013-11-16 23:21:00,39.6,38.6,29.24,WSW,247,0.0,4.0,96,0.00,,---,0.00,VWS V14.01,2013-11-17 05:21:00,
2013-11-16 23:26:00,39.4,38.4,29.24,WSW,247,0.0,4.0,96,0.00,,---,0.00,VWS V14.01,2013-11-17 05:26:00,
2013-11-16 23:31:00,39.3,38.3,29.25,WSW,249,2.0,5.0,96,0.00,,---,0.00,VWS V14.01,2013-11-17 05:31:00,
2013-11-16 23:36:00,39.2,38.2,29.25,WSW,249,0.0,4.0,96,0.00,,---,0.00,VWS V14.01,2013-11-17 05:36:00,
2013-11-16 23:41:00,39.0,37.7,29.25,WSW,249,2.0,4.0,95,0.00,,---,0.00,VWS V14.01,2013-11-17 05:41:00,
2013-11-16 23:46:00,39.0,37.7,29.26,WSW,249,2.0,4.0,95,0.00,,---,0.00,VWS V14.01,2013-11-17 05:46:00,
2013-11-16 23:51:00,38.9,37.9,29.26,WSW,249,3.0,4.0,96,0.00,,---,0.00,VWS V14.01,2013-11-17 05:51:00,
2013-11-16 23:56:00,38.9,37.9,29.26,WSW,249,1.0,5.0,96,0.00,,---,0.00,VWS V14.01,2013-11-17 05:56:00,